Forreston, Illinois
Current Conditions -  °F | °C
As of 4:15 PM on Tuesday 25 Nov 2014 (Local Time) from KFEP Reporting Station
Clear Clear  
Wind Chill: 10°   Ceiling: Unl
Heat Index: 19°   Visibility: 10mi
Dew Point: 14°   Wind: 7mph
Humidity: 81%   Direction: 220°SW
Pressure: 30.15"   Gusts: NA
Location:  42.13°N, 89.58°W
Report Text: KFEP 252215Z AUTO 22006KT 10SM CLR M07/M10 A3015 RMK AO2 T10731100
Loading
Personal Weather Stations






























Interactive Weather Map New forecast layout! Learn more

10-Day Weather Forecast

Advertisements
Track Severe Weather on mobile